Time;durP1;ratioP1;P1;durP2;ratioP2;P2;SDS_P1;SDS_P2;PMS_P1;PMS_P2;Temp;Humidity;BMP_temperature;BMP_pressure;BME280_temperature;BME280_humidity;BME280_pressure;Samples;Min_cycle;Max_cycle;Signal;HPM_P1;HPM_P2
2022/09/05 00:00:30;;;;;;;;;;;;;;;20.29;61.20;101117.94;5394679;32;44307;-76
2022/09/05 00:03:38;;;;;;;;;;;;;;;19.41;65.40;101113.97;5385372;32;34929;-76
2022/09/05 00:06:41;;;;;;;;;;;;;;;19.68;64.41;101119.38;5403450;32;35826;-76
2022/09/05 00:10:15;;;;;;;;;;;;;;;18.80;68.22;101128.50;5401285;32;34955;-77
2022/09/05 00:13:22;;;;;;;;;;;;;;;19.59;65.60;101119.97;5393173;32;36034;-77
2022/09/05 00:16:42;;;;;;;;;;;;;;;19.95;63.99;101119.34;5400489;32;34596;-78
2022/09/05 00:20:16;;;;;;;;;;;;;;;19.17;67.09;101116.41;5407165;32;34621;-77
2022/09/05 00:24:01;;;;;;;;;;;;;;;19.47;66.72;101125.09;5384411;32;34928;-77
2022/09/05 00:27:38;;;;;;;;;;;;;;;20.29;63.41;101123.28;5394085;32;35049;-77
2022/09/05 00:30:58;;;;;;;;;;;;;;;20.01;64.63;101127.78;5408866;32;34757;-77
2022/09/05 00:34:27;;;;;;;;;;;;;;;19.50;66.60;101116.03;5410706;32;35228;-76
2022/09/05 00:37:48;;;;;;;;;;;;;;;19.71;66.22;101122.69;5394716;32;34636;-76
2022/09/05 00:40:51;;;;;;;;;;;;;;;19.95;65.25;101109.53;5419217;32;34455;-78
2022/09/05 00:43:55;;;;;;;;;;;;;;;19.56;66.71;101115.66;5409439;32;34842;-78
2022/09/05 00:47:06;;;;;;;;;;;;;;;19.09;68.36;101116.88;5398592;32;45768;-77
2022/09/05 00:50:10;;;;;;;;;;;;;;;18.44;71.95;101120.94;5412575;32;35023;-77
2022/09/05 00:53:16;;;;;;;;;;;;;;;19.27;68.71;101114.87;5397779;32;35017;-75
2022/09/05 00:56:24;;;;;;;;;;;;;;;19.59;66.90;101119.97;5402603;32;35386;-77
2022/09/05 00:59:49;;;;;;;;;;;;;;;18.94;69.86;101126.72;5407394;32;35232;-77
2022/09/05 01:03:09;;;;;;;;;;;;;;;19.38;67.67;101123.00;5363615;32;36522;-77
2022/09/05 01:06:26;;;;;;;;;;;;;;;18.16;73.46;101132.34;5405338;32;34585;-76
2022/09/05 01:09:32;;;;;;;;;;;;;;;18.21;72.82;101127.63;5385846;32;44529;-77
2022/09/05 01:12:43;;;;;;;;;;;;;;;17.82;74.59;101132.50;5406596;32;34732;-77
2022/09/05 01:16:12;;;;;;;;;;;;;;;18.12;73.35;101127.22;5401577;32;34971;-76
2022/09/05 01:19:33;;;;;;;;;;;;;;;17.89;74.73;101121.50;5394466;32;37065;-77
2022/09/05 01:22:38;;;;;;;;;;;;;;;18.28;73.31;101116.50;5398892;32;44607;-78
2022/09/05 01:25:43;;;;;;;;;;;;;;;18.38;72.87;101120.34;5376329;32;34556;-77
2022/09/05 01:29:07;;;;;;;;;;;;;;;18.02;73.74;101119.84;5397140;32;35142;-77
2022/09/05 01:32:22;;;;;;;;;;;;;;;17.54;75.84;101119.06;5410876;32;35132;-76
2022/09/05 01:35:24;;;;;;;;;;;;;;;18.20;73.17;101107.28;5386440;32;36836;-76
2022/09/05 01:38:35;;;;;;;;;;;;;;;18.10;73.34;101112.31;5412646;32;33984;-77
2022/09/05 01:41:41;;;;;;;;;;;;;;;17.64;75.09;101114.91;5391397;32;37332;-77
2022/09/05 01:45:02;;;;;;;;;;;;;;;17.97;74.15;101121.91;5402440;32;35888;-78
2022/09/05 01:48:05;;;;;;;;;;;;;;;18.40;71.98;101115.78;5411681;32;44799;-77
2022/09/05 01:51:19;;;;;;;;;;;;;;;18.18;72.36;101115.34;5388652;32;35270;-79
2022/09/05 01:54:44;;;;;;;;;;;;;;;19.21;68.15;101112.59;5402612;32;44711;-78
2022/09/05 01:57:47;;;;;;;;;;;;;;;19.52;66.45;101121.31;5392191;32;35229;-76
2022/09/05 02:01:08;;;;;;;;;;;;;;;18.44;70.86;101131.56;5405167;32;34456;-77
2022/09/05 02:04:48;;;;;;;;;;;;;;;17.75;74.41;101128.50;5384403;32;35175;-76
2022/09/05 02:08:16;;;;;;;;;;;;;;;17.70;75.03;101127.84;5396132;32;34532;-77
2022/09/05 02:11:18;;;;;;;;;;;;;;;17.70;75.02;101132.31;5378176;32;35538;-77
2022/09/05 02:14:36;;;;;;;;;;;;;;;17.66;74.66;101120.16;5413970;32;44803;-77
2022/09/05 02:17:41;;;;;;;;;;;;;;;17.84;73.39;101122.66;5382605;32;35429;-78
2022/09/05 02:20:54;;;;;;;;;;;;;;;18.51;70.03;101117.81;5391499;32;34485;-77
2022/09/05 02:24:16;;;;;;;;;;;;;;;17.58;73.66;101113.47;5395179;32;35043;-78
2022/09/05 02:27:18;;;;;;;;;;;;;;;17.46;73.31;101123.94;5394587;32;35331;-77
2022/09/05 02:30:41;;;;;;;;;;;;;;;17.76;72.79;101130.19;5409075;32;35472;-77
2022/09/05 02:34:09;;;;;;;;;;;;;;;17.38;73.33;101134.12;5384144;32;44931;-78
2022/09/05 02:37:22;;;;;;;;;;;;;;;18.14;70.29;101124.47;5401175;32;34441;-77
2022/09/05 02:40:47;;;;;;;;;;;;;;;18.26;68.98;101123.72;5382109;32;36238;-76
2022/09/05 02:44:17;;;;;;;;;;;;;;;18.49;68.03;101124.19;5382873;32;35296;-76
2022/09/05 02:47:54;;;;;;;;;;;;;;;18.97;65.86;101116.81;5401193;32;35416;-78
2022/09/05 02:51:15;;;;;;;;;;;;;;;18.02;68.65;101130.50;5391290;32;34466;-76
2022/09/05 02:54:38;;;;;;;;;;;;;;;17.22;73.19;101126.16;5398081;32;35539;-76
2022/09/05 02:58:18;;;;;;;;;;;;;;;18.34;68.24;101132.09;5408627;32;45434;-77
2022/09/05 03:01:34;;;;;;;;;;;;;;;18.64;66.85;101128.56;5384946;32;34801;-76
2022/09/05 03:04:39;;;;;;;;;;;;;;;18.04;69.02;101139.25;5379993;32;44931;-77
2022/09/05 03:07:46;;;;;;;;;;;;;;;18.17;69.25;101137.59;5412457;32;35506;-78
2022/09/05 03:10:57;;;;;;;;;;;;;;;18.25;68.19;101139.78;5392617;32;36231;-77
2022/09/05 03:14:05;;;;;;;;;;;;;;;18.31;67.73;101134.97;5403694;32;47327;-76
2022/09/05 03:17:26;;;;;;;;;;;;;;;18.62;67.06;101127.81;5387498;32;34921;-77
2022/09/05 03:20:34;;;;;;;;;;;;;;;18.96;65.82;101134.59;5375994;32;45702;-77
2022/09/05 03:23:47;;;;;;;;;;;;;;;18.81;66.37;101140.88;5413771;32;34781;-76
2022/09/05 03:27:08;;;;;;;;;;;;;;;18.80;66.39;101136.47;5387984;32;34935;-77
2022/09/05 03:30:14;;;;;;;;;;;;;;;17.14;73.94;101144.31;5392208;32;34859;-77
2022/09/05 03:33:35;;;;;;;;;;;;;;;17.32;74.07;101146.81;5390912;32;35070;-77
2022/09/05 03:36:43;;;;;;;;;;;;;;;16.87;75.53;101147.50;5382819;32;35691;-77
2022/09/05 03:39:57;;;;;;;;;;;;;;;18.29;69.54;101150.19;5411357;32;35730;-76
2022/09/05 03:43:40;;;;;;;;;;;;;;;18.47;68.43;101152.66;5395725;32;34685;-77
2022/09/05 03:47:00;;;;;;;;;;;;;;;18.51;68.02;101138.25;5399738;32;35373;-76
2022/09/05 03:50:07;;;;;;;;;;;;;;;18.11;69.35;101156.56;5408653;32;44740;-77
2022/09/05 03:53:47;;;;;;;;;;;;;;;17.41;72.53;101155.22;5393070;32;47386;-76
2022/09/05 03:57:21;;;;;;;;;;;;;;;17.59;72.35;101163.03;5394961;32;34707;-76
2022/09/05 04:00:56;;;;;;;;;;;;;;;18.19;69.84;101167.62;5391521;32;37740;-76
2022/09/05 04:04:21;;;;;;;;;;;;;;;18.23;68.83;101169.16;5369722;32;35455;-79
2022/09/05 04:07:44;;;;;;;;;;;;;;;18.01;69.47;101164.22;5394853;32;35502;-77
2022/09/05 04:11:06;;;;;;;;;;;;;;;17.35;72.31;101174.16;5400255;32;45513;-78
2022/09/05 04:14:14;;;;;;;;;;;;;;;17.38;72.23;101177.50;5670504;26;34321;-94
2022/09/05 04:18:01;;;;;;;;;;;;;;;17.93;70.59;101178.91;5388439;27;34884;-94
2022/09/05 04:21:46;;;;;;;;;;;;;;;18.22;68.37;101180.72;5351170;32;33195;-93
2022/09/05 04:25:50;;;;;;;;;;;;;;;18.33;68.21;101190.75;5332213;32;35220;-95
2022/09/05 04:29:41;;;;;;;;;;;;;;;18.59;67.26;101197.19;5335328;32;36041;-94
2022/09/05 04:33:09;;;;;;;;;;;;;;;18.49;67.77;101204.88;5350125;32;35738;-93
2022/09/05 04:36:40;;;;;;;;;;;;;;;18.17;69.13;101209.44;5346102;32;35236;-95
2022/09/05 04:40:41;;;;;;;;;;;;;;;17.53;72.30;101199.72;5325085;32;35028;-94
2022/09/05 04:44:16;;;;;;;;;;;;;;;17.42;73.36;101202.09;5331173;32;36394;-95
2022/09/05 04:48:08;;;;;;;;;;;;;;;17.99;70.34;101208.66;5293827;32;45707;-91
2022/09/05 04:51:42;;;;;;;;;;;;;;;18.25;69.36;101208.97;5305505;32;35312;-95
2022/09/05 04:55:31;;;;;;;;;;;;;;;18.69;67.33;101217.03;5315547;32;35756;-95
2022/09/05 04:59:03;;;;;;;;;;;;;;;17.38;72.45;101217.34;5295973;32;35277;-94
2022/09/05 05:02:37;;;;;;;;;;;;;;;17.89;71.38;101222.56;5312001;32;45514;-95
2022/09/05 05:06:35;;;;;;;;;;;;;;;18.33;69.76;101228.00;5322294;32;35730;-93
2022/09/05 05:10:41;;;;;;;;;;;;;;;19.26;65.65;101221.59;5320829;32;35512;-92
2022/09/05 05:14:16;;;;;;;;;;;;;;;19.90;62.31;101218.38;5327233;32;36098;-91
2022/09/05 05:18:07;;;;;;;;;;;;;;;20.29;60.59;101227.38;5284635;32;35528;-91
2022/09/05 05:21:39;;;;;;;;;;;;;;;20.55;58.56;101236.38;5323017;32;34921;-91
2022/09/05 05:25:12;;;;;;;;;;;;;;;20.01;61.08;101225.66;5290782;32;34429;-91
2022/09/05 05:28:43;;;;;;;;;;;;;;;21.41;55.97;101228.62;5271025;33;45126;-92
2022/09/05 05:32:26;;;;;;;;;;;;;;;20.99;57.44;101227.94;5258127;33;33075;-92
2022/09/05 05:36:03;;;;;;;;;;;;;;;22.80;51.86;101229.03;5220556;33;35109;-92
2022/09/05 05:47:39;;;;;;;;;;;;;;;22.33;51.45;101230.78;5276694;33;35062;-95
2022/09/05 05:51:18;;;;;;;;;;;;;;;24.66;44.45;101222.94;5255225;33;35191;-93
2022/09/05 05:55:20;;;;;;;;;;;;;;;23.00;47.63;101238.22;5245999;33;33005;-96
2022/09/05 05:59:20;;;;;;;;;;;;;;;25.03;43.35;101226.03;5221948;33;34823;-96
2022/09/05 06:06:24;;;;;;;;;;;;;;;22.89;48.33;101238.19;5268914;33;20272;-75
2022/09/05 06:09:44;;;;;;;;;;;;;;;24.06;45.99;101219.87;5264209;33;44524;-81
2022/09/05 06:13:12;;;;;;;;;;;;;;;25.03;44.08;101228.72;5279639;33;34725;-76
2022/09/05 06:16:53;;;;;;;;;;;;;;;27.08;38.82;101223.59;5263910;33;35324;-69
2022/09/05 06:20:03;;;;;;;;;;;;;;;26.77;39.09;101223.75;5266811;33;44410;-70
2022/09/05 06:23:43;;;;;;;;;;;;;;;26.51;39.73;101226.19;5277602;33;45017;-67
2022/09/05 06:27:19;;;;;;;;;;;;;;;23.90;45.38;101230.19;5266444;33;35553;-74
2022/09/05 06:30:22;;;;;;;;;;;;;;;24.90;42.98;101225.38;5266268;33;33448;-72
2022/09/05 06:33:32;;;;;;;;;;;;;;;23.89;45.89;101229.31;5278507;33;34114;-73
2022/09/05 06:36:37;;;;;;;;;;;;;;;26.59;40.70;101220.09;5271389;33;33339;-69
2022/09/05 06:39:51;;;;;;;;;;;;;;;26.56;40.20;101223.09;5317403;32;35334;-79
2022/09/05 06:43:11;;;;;;;;;;;;;;;27.63;38.38;101211.00;5333025;32;44500;-88
2022/09/05 06:46:13;;;;;;;;;;;;;;;27.82;37.80;101220.00;5337168;32;34092;-76
2022/09/05 06:49:45;;;;;;;;;;;;;;;27.56;37.91;101222.53;5356423;32;34628;-85
2022/09/05 06:53:01;;;;;;;;;;;;;;;27.32;38.81;101221.22;5336895;32;34509;-83
2022/09/05 06:56:40;;;;;;;;;;;;;;;29.05;35.35;101218.28;5329242;32;38657;-89
2022/09/05 06:59:55;;;;;;;;;;;;;;;29.76;33.69;101221.66;5348458;32;35215;-82
2022/09/05 07:03:16;;;;;;;;;;;;;;;27.15;38.22;101230.09;5341606;32;35513;-80
2022/09/05 07:06:36;;;;;;;;;;;;;;;29.05;34.37;101230.97;5373547;32;44479;-72
2022/09/05 07:10:02;;;;;;;;;;;;;;;26.41;40.00;101233.47;5354569;32;36103;-72
2022/09/05 07:13:24;;;;;;;;;;;;;;;26.68;39.46;101232.72;5356189;32;44933;-69
2022/09/05 07:16:26;;;;;;;;;;;;;;;27.80;37.67;101228.25;5370008;32;34832;-81
2022/09/05 07:19:49;;;;;;;;;;;;;;;28.95;35.44;101220.22;5353797;32;36247;-75
2022/09/05 07:23:04;;;;;;;;;;;;;;;30.54;32.10;101224.84;5368156;32;44656;-77
2022/09/05 07:26:25;;;;;;;;;;;;;;;29.32;34.12;101235.34;5388297;32;45623;-76
2022/09/05 07:29:47;;;;;;;;;;;;;;;27.82;37.30;101230.78;5395294;32;45002;-84
2022/09/05 07:33:02;;;;;;;;;;;;;;;28.31;35.99;101226.78;5409805;32;34368;-74
2022/09/05 07:36:15;;;;;;;;;;;;;;;29.62;33.86;101226.69;5384216;32;36203;-78
2022/09/05 07:39:18;;;;;;;;;;;;;;;31.67;30.19;101222.06;5392403;32;37212;-89
2022/09/05 07:42:50;;;;;;;;;;;;;;;29.04;34.50;101224.66;5415476;32;35380;-78
2022/09/05 07:46:11;;;;;;;;;;;;;;;29.18;34.21;101228.66;5400199;32;34499;-77
2022/09/05 07:49:15;;;;;;;;;;;;;;;29.45;33.52;101233.03;5407816;32;34716;-76
2022/09/05 07:52:18;;;;;;;;;;;;;;;27.32;37.15;101229.31;5386547;32;44177;-76
2022/09/05 07:55:42;;;;;;;;;;;;;;;30.96;30.89;101223.81;5370015;32;35813;-77
2022/09/05 07:59:07;;;;;;;;;;;;;;;32.23;28.55;101218.19;5407417;32;34751;-79
2022/09/05 08:02:09;;;;;;;;;;;;;;;32.22;28.87;101218.38;5386634;32;34945;-77
2022/09/05 08:05:19;;;;;;;;;;;;;;;31.88;29.40;101213.31;5394219;32;34432;-76
2022/09/05 08:08:46;;;;;;;;;;;;;;;29.94;32.07;101219.66;5401824;32;35653;-77
2022/09/05 08:12:16;;;;;;;;;;;;;;;28.79;34.46;101225.50;5399169;32;35846;-78
2022/09/05 08:15:28;;;;;;;;;;;;;;;29.68;31.18;101226.03;5402375;32;35377;-80
2022/09/05 08:18:53;;;;;;;;;;;;;;;30.06;30.69;101218.34;5387079;32;44986;-76
2022/09/05 08:21:56;;;;;;;;;;;;;;;30.78;29.42;101215.03;5395937;32;34234;-80
2022/09/05 08:24:59;;;;;;;;;;;;;;;29.29;32.11;101214.81;5409547;32;34289;-80
2022/09/05 08:28:05;;;;;;;;;;;;;;;31.31;29.17;101219.03;5402400;32;34361;-78
2022/09/05 08:31:08;;;;;;;;;;;;;;;31.42;28.28;101216.75;5410494;32;35498;-78
2022/09/05 08:34:14;;;;;;;;;;;;;;;30.63;29.80;101212.97;5395029;32;34246;-77
2022/09/05 08:37:18;;;;;;;;;;;;;;;34.03;24.83;101208.09;5390318;32;36225;-78
2022/09/05 08:40:42;;;;;;;;;;;;;;;30.74;29.68;101212.66;5395251;32;44925;-77
2022/09/05 08:44:03;;;;;;;;;;;;;;;33.85;24.75;101190.25;5397045;32;34149;-78
2022/09/05 08:47:26;;;;;;;;;;;;;;;33.03;25.62;101206.78;5410317;32;34773;-77
2022/09/05 08:50:52;;;;;;;;;;;;;;;34.10;24.02;101198.94;5401523;32;36130;-78
2022/09/05 08:54:00;;;;;;;;;;;;;;;34.85;22.94;101194.78;5388458;32;44583;-77
2022/09/05 08:57:16;;;;;;;;;;;;;;;34.53;23.52;101192.66;5391486;32;34610;-79
2022/09/05 09:00:18;;;;;;;;;;;;;;;33.88;23.53;101195.34;5376762;32;44894;-78
2022/09/05 09:03:40;;;;;;;;;;;;;;;36.19;21.08;101180.66;5407655;32;35491;-81
2022/09/05 09:07:06;;;;;;;;;;;;;;;32.98;24.79;101194.78;5403354;32;44737;-77
2022/09/05 09:10:47;;;;;;;;;;;;;;;33.01;24.80;101187.06;5396353;32;34747;-80
2022/09/05 09:15:33;;;;;;;;;;;;;;;32.80;25.50;101173.34;5408192;32;906240;-78
2022/09/05 09:18:47;;;;;;;;;;;;;;;32.21;25.50;101179.47;5447065;32;33820;-81
2022/09/05 09:21:55;;;;;;;;;;;;;;;32.01;25.74;101178.22;5439213;32;46038;-75
2022/09/05 09:25:02;;;;;;;;;;;;;;;32.15;26.06;101174.75;5440727;32;34446;-72
2022/09/05 09:28:35;;;;;;;;;;;;;;;33.17;24.71;101172.44;5447271;32;34765;-75
2022/09/05 09:31:53;;;;;;;;;;;;;;;31.86;26.27;101167.28;5429434;32;34171;-79
2022/09/05 09:35:06;;;;;;;;;;;;;;;33.63;23.74;101169.47;5441607;32;34309;-78
2022/09/05 09:38:14;;;;;;;;;;;;;;;33.66;23.61;101174.53;5430273;32;34220;-73
2022/09/05 09:41:36;;;;;;;;;;;;;;;33.32;24.39;101173.25;5433633;32;36057;-72
2022/09/05 09:44:57;;;;;;;;;;;;;;;32.55;25.27;101170.84;5421867;32;34002;-76
2022/09/05 09:48:08;;;;;;;;;;;;;;;34.71;22.41;101173.88;5437727;32;34601;-75
2022/09/05 09:51:29;;;;;;;;;;;;;;;34.39;22.74;101169.81;5444348;32;34377;-78
2022/09/05 09:54:36;;;;;;;;;;;;;;;32.49;25.22;101171.59;5432876;32;35423;-73
2022/09/05 09:57:44;;;;;;;;;;;;;;;35.78;21.25;101159.75;5412995;32;34290;-76
2022/09/05 10:00:50;;;;;;;;;;;;;;;35.38;21.65;101153.28;5425337;32;35380;-74
2022/09/05 10:04:11;;;;;;;;;;;;;;;34.23;23.15;101154.59;5411973;32;44496;-75
2022/09/05 10:07:48;;;;;;;;;;;;;;;34.22;22.73;101153.75;5417432;32;35972;-73
2022/09/05 10:11:11;;;;;;;;;;;;;;;34.65;22.32;101161.03;5438221;32;34587;-79
2022/09/05 10:14:43;;;;;;;;;;;;;;;32.85;24.56;101149.97;5427155;32;35580;-78
2022/09/05 10:17:51;;;;;;;;;;;;;;;32.54;24.91;101158.28;5422998;32;44771;-76
2022/09/05 10:21:04;;;;;;;;;;;;;;;34.21;22.90;101143.03;5422266;32;35611;-70
2022/09/05 10:24:30;;;;;;;;;;;;;;;31.81;26.01;101145.25;5406745;32;44680;-76
2022/09/05 10:27:47;;;;;;;;;;;;;;;29.67;29.48;101142.22;5413134;32;34727;-68
2022/09/05 10:30:55;;;;;;;;;;;;;;;28.69;30.85;101151.72;5421341;32;45058;-74
2022/09/05 10:34:21;;;;;;;;;;;;;;;30.81;27.97;101141.41;5396504;32;36158;-68
2022/09/05 10:37:44;;;;;;;;;;;;;;;29.88;29.34;101136.31;5415648;32;34684;-68
2022/09/05 10:40:47;;;;;;;;;;;;;;;29.47;29.77;101138.06;5401248;32;33859;-69
2022/09/05 10:44:12;;;;;;;;;;;;;;;29.19;29.95;101132.06;5408969;32;34639;-79
2022/09/05 10:47:16;;;;;;;;;;;;;;;28.67;30.80;101137.50;5395419;32;35324;-66
2022/09/05 10:50:24;;;;;;;;;;;;;;;28.48;31.67;101130.47;5401095;32;44453;-68
2022/09/05 10:53:40;;;;;;;;;;;;;;;28.36;31.55;101129.84;5420197;32;34811;-67
2022/09/05 10:56:46;;;;;;;;;;;;;;;28.49;31.23;101124.03;5384039;32;34886;-77
2022/09/05 10:59:48;;;;;;;;;;;;;;;27.87;32.62;101124.00;5421653;32;44640;-78
2022/09/05 11:03:17;;;;;;;;;;;;;;;28.80;31.33;101110.88;5403613;32;35484;-70
2022/09/05 11:06:33;;;;;;;;;;;;;;;28.81;30.77;101107.16;5391404;32;44827;-73
2022/09/05 11:09:41;;;;;;;;;;;;;;;28.62;31.09;101102.81;5407993;32;37264;-78
2022/09/05 11:12:56;;;;;;;;;;;;;;;29.43;29.78;101102.34;5397857;32;34024;-70
2022/09/05 11:16:04;;;;;;;;;;;;;;;28.97;30.44;101098.28;5410308;32;35759;-84
2022/09/05 11:19:13;;;;;;;;;;;;;;;29.86;28.59;101105.84;5420230;32;35761;-75
2022/09/05 11:22:16;;;;;;;;;;;;;;;30.26;27.90;101104.19;5414324;32;34167;-82
2022/09/05 11:25:26;;;;;;;;;;;;;;;29.46;29.38;101101.19;5414351;32;45198;-73
2022/09/05 11:28:41;;;;;;;;;;;;;;;27.91;31.94;101103.78;5405676;32;34339;-72
2022/09/05 11:32:19;;;;;;;;;;;;;;;27.90;32.22;101102.09;5427235;32;33991;-74
2022/09/05 11:35:44;;;;;;;;;;;;;;;29.29;30.25;101094.87;5422286;32;34800;-73
2022/09/05 11:39:24;;;;;;;;;;;;;;;29.81;29.03;101100.91;5405651;32;35386;-85
2022/09/05 11:43:01;;;;;;;;;;;;;;;29.71;28.58;101094.00;5405240;32;34401;-72
2022/09/05 11:46:03;;;;;;;;;;;;;;;28.41;31.15;101100.50;5416842;32;34181;-81
2022/09/05 11:49:17;;;;;;;;;;;;;;;28.80;30.56;101091.94;5401042;32;34489;-66
2022/09/05 11:52:28;;;;;;;;;;;;;;;29.63;29.29;101087.53;5403517;32;43754;-75
2022/09/05 11:55:49;;;;;;;;;;;;;;;28.45;30.72;101092.91;5384097;32;34263;-76
2022/09/05 11:59:10;;;;;;;;;;;;;;;29.14;29.84;101081.13;5401973;32;45205;-73
2022/09/05 12:02:20;;;;;;;;;;;;;;;29.07;30.20;101083.63;5418054;32;33678;-72
2022/09/05 12:05:50;;;;;;;;;;;;;;;28.36;30.87;101081.19;5400097;32;42967;-85
2022/09/05 12:09:12;;;;;;;;;;;;;;;29.88;28.86;101082.13;5419267;32;34137;-73
2022/09/05 12:12:28;;;;;;;;;;;;;;;31.35;26.03;101069.09;5405822;32;44480;-78
2022/09/05 12:15:45;;;;;;;;;;;;;;;31.79;25.18;101077.47;5400484;32;35275;-77
2022/09/05 12:19:10;;;;;;;;;;;;;;;30.76;26.78;101067.84;5418618;32;34373;-75
2022/09/05 12:22:20;;;;;;;;;;;;;;;31.83;25.62;101058.94;5401790;32;43190;-72
2022/09/05 12:25:31;;;;;;;;;;;;;;;33.21;23.64;101053.87;5396723;32;34272;-79
2022/09/05 12:28:57;;;;;;;;;;;;;;;33.72;22.81;101059.28;5413777;32;45138;-74
2022/09/05 12:32:19;;;;;;;;;;;;;;;34.94;21.11;101053.50;5391471;32;44952;-83
2022/09/05 12:36:02;;;;;;;;;;;;;;;32.23;24.55;101054.16;5399039;32;35597;-79
2022/09/05 12:39:43;;;;;;;;;;;;;;;30.89;26.39;101051.84;5406478;32;35768;-84
2022/09/05 12:43:06;;;;;;;;;;;;;;;31.17;26.26;101053.06;5406451;32;35643;-78
2022/09/05 12:46:35;;;;;;;;;;;;;;;31.61;25.67;101047.03;5415627;32;35267;-80
2022/09/05 12:49:43;;;;;;;;;;;;;;;29.14;28.95;101049.50;5418390;32;34127;-82
2022/09/05 12:53:12;;;;;;;;;;;;;;;29.89;27.97;101045.91;5398028;32;44709;-76
2022/09/05 12:56:17;;;;;;;;;;;;;;;30.84;26.62;101038.78;5402412;32;34817;-80
2022/09/05 12:59:41;;;;;;;;;;;;;;;30.25;27.33;101040.13;5408047;32;34530;-75
2022/09/05 13:03:03;;;;;;;;;;;;;;;34.30;22.45;101029.97;5398026;32;34420;-73
2022/09/05 13:06:29;;;;;;;;;;;;;;;34.34;22.49;101027.72;5420748;32;44747;-76
2022/09/05 13:09:42;;;;;;;;;;;;;;;33.54;23.28;101020.72;5405989;32;34224;-84
2022/09/05 13:13:06;;;;;;;;;;;;;;;33.72;23.68;101010.22;5411173;32;34678;-80
2022/09/05 13:16:28;;;;;;;;;;;;;;;31.76;26.18;101018.03;5421756;32;35923;-78
2022/09/05 13:19:38;;;;;;;;;;;;;;;30.68;27.54;101012.59;5419773;32;34449;-80
2022/09/05 13:22:42;;;;;;;;;;;;;;;32.09;25.66;101017.78;5410787;32;34082;-83
2022/09/05 13:25:55;;;;;;;;;;;;;;;31.13;26.92;101013.72;5409947;32;44301;-74
2022/09/05 13:28:57;;;;;;;;;;;;;;;30.29;28.28;101009.78;5408038;32;34077;-71
2022/09/05 13:32:23;;;;;;;;;;;;;;;28.75;30.17;101021.25;5414813;32;34141;-80
2022/09/05 13:36:04;;;;;;;;;;;;;;;29.39;29.47;101025.19;5403871;32;35517;-81
2022/09/05 13:39:27;;;;;;;;;;;;;;;29.91;28.51;101016.78;5406548;32;36214;-80
2022/09/05 13:42:30;;;;;;;;;;;;;;;29.36;29.49;101020.94;5410190;32;34202;-88
2022/09/05 13:45:33;;;;;;;;;;;;;;;29.28;29.98;101006.53;5406286;32;36894;-77
2022/09/05 13:48:41;;;;;;;;;;;;;;;28.03;31.65;101016.09;5429861;32;33970;-81
2022/09/05 13:52:24;;;;;;;;;;;;;;;27.98;31.91;101012.16;5399623;32;34564;-74
2022/09/05 13:55:29;;;;;;;;;;;;;;;28.58;30.89;101004.09;5385517;32;46197;-82
2022/09/05 13:58:31;;;;;;;;;;;;;;;28.53;31.27;101007.31;5406391;32;34136;-78
2022/09/05 14:01:35;;;;;;;;;;;;;;;28.00;32.45;101008.28;5403905;32;34608;-75
2022/09/05 14:04:50;;;;;;;;;;;;;;;29.17;30.43;100998.72;5418930;32;35092;-77
2022/09/05 14:08:26;;;;;;;;;;;;;;;29.50;29.33;100995.09;5402491;32;34351;-74
2022/09/05 14:11:31;;;;;;;;;;;;;;;28.41;31.12;100986.97;5402436;32;35533;-69
2022/09/05 14:14:36;;;;;;;;;;;;;;;28.18;31.41;100988.47;5422818;32;34723;-77
2022/09/05 14:17:58;;;;;;;;;;;;;;;28.55;31.04;100989.03;5405565;32;34707;-76
2022/09/05 14:21:16;;;;;;;;;;;;;;;27.99;32.02;100982.28;5411740;32;35580;-75
2022/09/05 14:24:23;;;;;;;;;;;;;;;28.30;31.12;100988.03;5404874;32;44181;-76
2022/09/05 14:27:29;;;;;;;;;;;;;;;27.92;31.88;100966.84;5399997;32;34735;-75
2022/09/05 14:30:42;;;;;;;;;;;;;;;28.84;30.30;100966.16;5414656;32;38002;-71
2022/09/05 14:34:10;;;;;;;;;;;;;;;29.28;29.04;100969.50;5401827;32;36081;-73
2022/09/05 14:37:41;;;;;;;;;;;;;;;28.75;29.98;100968.00;5419650;32;34825;-75
2022/09/05 14:41:41;;;;;;;;;;;;;;;28.24;30.92;100966.22;5424914;32;34576;-74
2022/09/05 14:45:21;;;;;;;;;;;;;;;28.31;30.58;100970.00;5372311;32;34469;-83
2022/09/05 14:48:35;;;;;;;;;;;;;;;27.57;32.20;100967.75;5356765;32;46804;-70
2022/09/05 14:51:41;;;;;;;;;;;;;;;27.89;32.13;100965.34;5394764;32;34491;-73
2022/09/05 14:54:44;;;;;;;;;;;;;;;27.71;32.07;100972.63;5394327;32;35497;-73
2022/09/05 14:58:06;;;;;;;;;;;;;;;27.62;32.07;100968.13;5398559;32;34560;-70
2022/09/05 15:01:29;;;;;;;;;;;;;;;28.04;30.95;100963.72;5385978;32;34557;-67
2022/09/05 15:04:51;;;;;;;;;;;;;;;29.23;29.08;100957.47;5378399;32;45616;-68
2022/09/05 15:08:00;;;;;;;;;;;;;;;29.27;29.17;100953.44;5416333;32;33905;-72
2022/09/05 15:11:06;;;;;;;;;;;;;;;28.48;31.17;100950.16;5401500;32;35107;-70
2022/09/05 15:14:29;;;;;;;;;;;;;;;28.18;31.65;100948.78;5413827;32;36277;-77
2022/09/05 15:17:31;;;;;;;;;;;;;;;28.22;31.26;100950.16;5397434;32;34608;-77
2022/09/05 15:20:35;;;;;;;;;;;;;;;29.16;29.76;100954.59;5397331;32;34333;-75
2022/09/05 15:23:37;;;;;;;;;;;;;;;28.01;32.06;100941.59;5416627;32;34192;-73
2022/09/05 15:26:52;;;;;;;;;;;;;;;27.94;31.78;100946.78;5385379;32;35473;-74
2022/09/05 15:29:55;;;;;;;;;;;;;;;29.31;29.21;100955.63;5398540;32;43109;-69
2022/09/05 15:33:14;;;;;;;;;;;;;;;29.20;29.32;100947.00;5380557;32;32930;-82
2022/09/05 15:36:33;;;;;;;;;;;;;;;29.50;29.02;100940.94;5380243;32;34147;-73
2022/09/05 15:39:35;;;;;;;;;;;;;;;28.70;30.61;100942.44;5419094;32;33818;-77
2022/09/05 15:42:38;;;;;;;;;;;;;;;28.22;31.27;100938.50;5387893;32;34794;-76
2022/09/05 15:45:40;;;;;;;;;;;;;;;28.39;31.11;100934.88;5395173;32;38318;-74
2022/09/05 15:48:42;;;;;;;;;;;;;;;28.56;31.12;100936.66;5381255;32;34161;-73
2022/09/05 15:51:48;;;;;;;;;;;;;;;29.59;28.42;100928.25;5389762;32;34404;-67
2022/09/05 15:54:50;;;;;;;;;;;;;;;28.26;31.12;100923.66;5373160;32;45265;-89
2022/09/05 15:57:54;;;;;;;;;;;;;;;27.93;31.36;100931.56;5378564;32;35350;-70
2022/09/05 16:00:56;;;;;;;;;;;;;;;28.82;29.96;100936.56;5402176;32;35887;-69
2022/09/05 16:03:59;;;;;;;;;;;;;;;28.71;30.57;100933.31;5407987;32;36691;-71
2022/09/05 16:07:22;;;;;;;;;;;;;;;28.29;30.82;100926.03;5411080;32;45521;-70
2022/09/05 16:10:44;;;;;;;;;;;;;;;29.31;29.44;100931.28;5403392;32;35555;-70
2022/09/05 16:14:12;;;;;;;;;;;;;;;28.80;30.00;100926.94;5405721;32;35605;-69
2022/09/05 16:17:22;;;;;;;;;;;;;;;28.77;30.08;100921.84;5421149;32;34214;-78
2022/09/05 16:20:45;;;;;;;;;;;;;;;28.64;30.21;100927.72;5398392;32;34556;-71
2022/09/05 16:24:12;;;;;;;;;;;;;;;28.62;30.49;100920.78;5411355;32;34620;-90
2022/09/05 16:27:17;;;;;;;;;;;;;;;29.03;29.88;100917.19;5431100;32;34239;-79
2022/09/05 16:30:20;;;;;;;;;;;;;;;28.81;30.31;100912.41;5405888;32;46385;-89
2022/09/05 16:33:23;;;;;;;;;;;;;;;28.69;30.38;100919.13;5434311;32;34262;-88
2022/09/05 16:36:29;;;;;;;;;;;;;;;28.35;30.75;100906.50;5406251;32;34935;-70
2022/09/05 16:39:31;;;;;;;;;;;;;;;29.18;29.04;100916.56;5425658;32;34914;-89
2022/09/05 16:42:33;;;;;;;;;;;;;;;28.55;29.92;100913.34;5409930;32;35268;-89
2022/09/05 16:45:50;;;;;;;;;;;;;;;28.31;30.53;100902.41;5410308;32;45013;-70
2022/09/05 16:49:01;;;;;;;;;;;;;;;29.01;29.41;100908.41;5435300;32;34836;-70
2022/09/05 16:52:12;;;;;;;;;;;;;;;28.69;29.99;100906.44;5406457;32;35286;-90
2022/09/05 16:55:27;;;;;;;;;;;;;;;27.73;32.17;100901.25;5401735;32;45272;-89
2022/09/05 16:58:38;;;;;;;;;;;;;;;27.49;32.95;100909.13;5421998;32;34259;-69
2022/09/05 17:01:40;;;;;;;;;;;;;;;28.12;32.53;100908.03;5411853;32;35279;-78
2022/09/05 17:05:00;;;;;;;;;;;;;;;28.61;31.93;100906.44;5430726;32;34394;-89
2022/09/05 17:08:12;;;;;;;;;;;;;;;28.13;32.98;100904.31;5408986;32;34724;-89
2022/09/05 17:11:14;;;;;;;;;;;;;;;27.97;33.81;100907.81;5415078;32;34957;-89